093  
UXUS97 KREV 231342  
SRGREV  
 
SOARING FORECAST  
NATIONAL WEATHER SERVICE - RENO NV  
700 AM PDT SUN APR 23 2017  
 
THIS SOARING FORECAST IS FOR THE EASTERN SIERRA AND WESTERN NEVADA  
WITH SPECIFIC INDICES FOR THE GREATER RENO AREA.  
 
THIS FORECAST IS PREPARED DAILY BY 700 AM AND IS NOT UPDATED.  
 
FOR CURRENT FLIGHT CONDITIONS...FORECASTS...AND ADVISORIES...ACCESS  
YOUR LOCAL BRIEFING OUTLET OR FLIGHT SERVICE STATION.  
 
*******************************************************************  
FORECASTED LOCAL INDICES FOR RENO: TODAY YESTERDAY  
FORECASTED MAX TEMP AT RENO (DEG F)..... 67 75  
FORECASTED TRIGGER TEMPERATURE (DEG F).. 59 68  
EXCEEDED YESTERDAY BY 1255 PM PDT  
FORECASTED MAXIMUM ALTITUDE (FT MSL).... 14600 11600  
FORECASTED SOARING INDEX (FPM).......... 828 528  
FORECASTED K-INDEX.........VALID 18Z.... 9 9  
FORECASTED K-INDEX.........VALID 00Z.... 7 20  
FORECASTED LIFTED INDEX....VALID 18Z.... 5 9  
FORECASTED LIFTED INDEX....VALID 00Z.... 7 4  
 
AFTERNOON WINDS ALOFT FORECAST  
MSL (FT) WIND/TEMP  
9000 2622/+01  
10000 2622/+00  
12000 2723/-04  
14000 2726/-07  
16000 2830/-11  
18000 2941/-15  
24000 3051/-27  
30000 3071/-44  
34000 3182/-55  
39000 3073/-63  
 
SLIDE MOUNTAIN DATA:  
 
* WIND DIRECTION BROKEN: LIKELY SSW.*  
 
DATE TIME TEMP DEWPT RH WIND (MPH)  
(F) (F) | DIR SPEED GUST  
2017-04-23 05:20 29 17 48 | M* 56 68  
2017-04-23 05:00 29 17 49 | M* 59 72  
2017-04-23 04:50 29 22 66 | M* 54 64  
2017-04-23 04:30 29 21 64 | M* 53 66  
 
RENO TAF FORECAST:  
KRNO 231120Z 2312/2412 VRB04KT P6SM FEW120 SCT200  
FM231900 27015G25KT P6SM FEW120 SCT200  
FM240500 30010KT P6SM SCT120 BKN200  
 
CARSON CITY TAF FORECAST:  
KCXP 231120Z 2312/2412 27009KT P6SM FEW120 SCT200  
FM231900 26014G24KT P6SM FEW120 SCT200  
FM240400 28011KT P6SM SCT120 BKN200  
 
OUTLOOK FOR THE RENO-CARSON CITY-MINDEN AREA:   
MONDAY
 
MOSTLY CLOUDY. ISOLATED SHOWERS IN THE MORNING. SNOW  
LEVEL RISING ABOVE 7000 FEET. HIGHS 56 TO 61. SOUTHWEST WINDS  
AROUND 10 MPH INCREASING TO WEST 15 TO 25 MPH WITH GUSTS UP TO  
40 MPH IN THE AFTERNOON.  
 
SUNRISE AND SUNSET  
APRIL 23 2017.........SUNRISE 610 AM PDT SUNSET 745 PM PDT  
APRIL 24 2017.........SUNRISE 609 AM PDT SUNSET 746 PM PDT  
 
CLICK HERE TO GO TO PREVIOUS BULLETINS.

The Nexlab NV Page
The Nexlab CA Page Main Text Page